sensor_id;sensor_type;location;lat;lon;timestamp;P1;durP1;ratioP1;P2;durP2;ratioP2
43857;SDS011;29507;51.284;5.758;2023-02-21T00:00:02;28.92;;;13.90;;
43857;SDS011;29507;51.284;5.758;2023-02-21T00:02:47;29.20;;;14.63;;
43857;SDS011;29507;51.284;5.758;2023-02-21T00:05:31;29.77;;;14.75;;
43857;SDS011;29507;51.284;5.758;2023-02-21T00:08:15;26.75;;;13.55;;
43857;SDS011;29507;51.284;5.758;2023-02-21T00:11:00;29.30;;;13.40;;
43857;SDS011;29507;51.284;5.758;2023-02-21T00:13:44;29.52;;;14.60;;
43857;SDS011;29507;51.284;5.758;2023-02-21T00:16:28;30.50;;;15.00;;
43857;SDS011;29507;51.284;5.758;2023-02-21T00:19:12;28.92;;;14.02;;
43857;SDS011;29507;51.284;5.758;2023-02-21T00:21:56;21.98;;;12.05;;
43857;SDS011;29507;51.284;5.758;2023-02-21T00:24:40;27.45;;;13.20;;
43857;SDS011;29507;51.284;5.758;2023-02-21T00:27:25;30.02;;;14.10;;
43857;SDS011;29507;51.284;5.758;2023-02-21T00:30:09;28.88;;;15.02;;
43857;SDS011;29507;51.284;5.758;2023-02-21T00:32:54;28.98;;;14.93;;
43857;SDS011;29507;51.284;5.758;2023-02-21T00:35:38;28.85;;;14.50;;
43857;SDS011;29507;51.284;5.758;2023-02-21T00:38:22;33.95;;;15.57;;
43857;SDS011;29507;51.284;5.758;2023-02-21T00:41:07;30.23;;;15.57;;
43857;SDS011;29507;51.284;5.758;2023-02-21T00:43:51;32.83;;;15.60;;
43857;SDS011;29507;51.284;5.758;2023-02-21T00:46:35;29.92;;;14.65;;
43857;SDS011;29507;51.284;5.758;2023-02-21T00:49:19;32.67;;;14.82;;
43857;SDS011;29507;51.284;5.758;2023-02-21T00:52:03;33.50;;;14.88;;
43857;SDS011;29507;51.284;5.758;2023-02-21T00:54:48;36.42;;;16.15;;
43857;SDS011;29507;51.284;5.758;2023-02-21T00:57:32;33.30;;;15.15;;
43857;SDS011;29507;51.284;5.758;2023-02-21T01:00:17;35.33;;;15.98;;
43857;SDS011;29507;51.284;5.758;2023-02-21T01:03:06;39.22;;;16.58;;
43857;SDS011;29507;51.284;5.758;2023-02-21T01:05:51;35.50;;;16.83;;
43857;SDS011;29507;51.284;5.758;2023-02-21T01:08:39;36.05;;;18.00;;
43857;SDS011;29507;51.284;5.758;2023-02-21T01:11:25;35.38;;;16.67;;
43857;SDS011;29507;51.284;5.758;2023-02-21T01:14:09;35.70;;;16.10;;
43857;SDS011;29507;51.284;5.758;2023-02-21T01:16:54;40.50;;;17.52;;
43857;SDS011;29507;51.284;5.758;2023-02-21T01:19:38;39.88;;;17.17;;
43857;SDS011;29507;51.284;5.758;2023-02-21T01:22:23;42.78;;;19.02;;
43857;SDS011;29507;51.284;5.758;2023-02-21T01:25:07;34.47;;;15.68;;
43857;SDS011;29507;51.284;5.758;2023-02-21T01:27:52;36.92;;;17.08;;
43857;SDS011;29507;51.284;5.758;2023-02-21T01:30:37;39.45;;;17.00;;
43857;SDS011;29507;51.284;5.758;2023-02-21T01:33:22;35.42;;;16.15;;
43857;SDS011;29507;51.284;5.758;2023-02-21T01:36:06;38.42;;;16.67;;
43857;SDS011;29507;51.284;5.758;2023-02-21T01:38:51;35.63;;;15.70;;
43857;SDS011;29507;51.284;5.758;2023-02-21T01:41:35;42.05;;;16.15;;
43857;SDS011;29507;51.284;5.758;2023-02-21T01:47:17;43.78;;;16.25;;
43857;SDS011;29507;51.284;5.758;2023-02-21T01:50:05;38.80;;;17.02;;
43857;SDS011;29507;51.284;5.758;2023-02-21T01:53:12;36.45;;;17.58;;
43857;SDS011;29507;51.284;5.758;2023-02-21T01:56:02;37.13;;;16.30;;
43857;SDS011;29507;51.284;5.758;2023-02-21T01:58:48;33.72;;;15.48;;
43857;SDS011;29507;51.284;5.758;2023-02-21T02:01:45;35.35;;;17.10;;
43857;SDS011;29507;51.284;5.758;2023-02-21T02:04:52;34.15;;;14.77;;
43857;SDS011;29507;51.284;5.758;2023-02-21T02:07:38;36.63;;;14.38;;
43857;SDS011;29507;51.284;5.758;2023-02-21T02:10:22;38.05;;;16.15;;
43857;SDS011;29507;51.284;5.758;2023-02-21T02:24:29;35.92;;;15.05;;
43857;SDS011;29507;51.284;5.758;2023-02-21T02:32:30;33.28;;;14.88;;
43857;SDS011;29507;51.284;5.758;2023-02-21T02:35:08;36.50;;;15.45;;
43857;SDS011;29507;51.284;5.758;2023-02-21T02:38:00;36.97;;;14.93;;
43857;SDS011;29507;51.284;5.758;2023-02-21T02:40:47;41.50;;;14.50;;
43857;SDS011;29507;51.284;5.758;2023-02-21T02:46:07;40.97;;;15.43;;
43857;SDS011;29507;51.284;5.758;2023-02-21T02:48:45;34.40;;;14.88;;
43857;SDS011;29507;51.284;5.758;2023-02-21T02:51:22;38.13;;;16.42;;
43857;SDS011;29507;51.284;5.758;2023-02-21T02:53:49;34.92;;;15.23;;
43857;SDS011;29507;51.284;5.758;2023-02-21T02:56:15;37.40;;;14.93;;
43857;SDS011;29507;51.284;5.758;2023-02-21T03:04:06;41.30;;;15.82;;
43857;SDS011;29507;51.284;5.758;2023-02-21T03:09:36;36.85;;;14.60;;
43857;SDS011;29507;51.284;5.758;2023-02-21T03:15:07;37.67;;;14.80;;
43857;SDS011;29507;51.284;5.758;2023-02-21T03:17:42;44.45;;;16.40;;
43857;SDS011;29507;51.284;5.758;2023-02-21T03:20:14;38.22;;;16.20;;
43857;SDS011;29507;51.284;5.758;2023-02-21T03:22:41;33.25;;;14.57;;
43857;SDS011;29507;51.284;5.758;2023-02-21T03:25:08;40.33;;;15.20;;
43857;SDS011;29507;51.284;5.758;2023-02-21T03:27:35;50.80;;;17.08;;
43857;SDS011;29507;51.284;5.758;2023-02-21T03:30:03;38.67;;;16.10;;
43857;SDS011;29507;51.284;5.758;2023-02-21T03:32:39;38.65;;;15.15;;
43857;SDS011;29507;51.284;5.758;2023-02-21T03:35:09;42.25;;;15.68;;
43857;SDS011;29507;51.284;5.758;2023-02-21T03:37:36;44.88;;;16.85;;
43857;SDS011;29507;51.284;5.758;2023-02-21T03:42:34;46.67;;;16.20;;
43857;SDS011;29507;51.284;5.758;2023-02-21T03:45:00;45.42;;;16.58;;
43857;SDS011;29507;51.284;5.758;2023-02-21T03:47:26;47.60;;;17.80;;
43857;SDS011;29507;51.284;5.758;2023-02-21T03:49:51;49.63;;;17.20;;
43857;SDS011;29507;51.284;5.758;2023-02-21T03:52:17;52.50;;;16.70;;
43857;SDS011;29507;51.284;5.758;2023-02-21T03:54:42;52.25;;;18.23;;
43857;SDS011;29507;51.284;5.758;2023-02-21T03:57:08;47.90;;;17.33;;
43857;SDS011;29507;51.284;5.758;2023-02-21T03:59:34;53.28;;;17.63;;
43857;SDS011;29507;51.284;5.758;2023-02-21T04:02:00;47.95;;;16.83;;
43857;SDS011;29507;51.284;5.758;2023-02-21T04:04:25;54.95;;;17.40;;
43857;SDS011;29507;51.284;5.758;2023-02-21T04:06:51;53.60;;;16.67;;
43857;SDS011;29507;51.284;5.758;2023-02-21T04:09:17;56.95;;;17.95;;
43857;SDS011;29507;51.284;5.758;2023-02-21T04:11:43;51.00;;;17.13;;
43857;SDS011;29507;51.284;5.758;2023-02-21T04:14:09;47.83;;;16.25;;
43857;SDS011;29507;51.284;5.758;2023-02-21T04:16:35;43.72;;;15.10;;
43857;SDS011;29507;51.284;5.758;2023-02-21T04:19:00;45.58;;;16.67;;
43857;SDS011;29507;51.284;5.758;2023-02-21T04:21:27;52.25;;;17.27;;
43857;SDS011;29507;51.284;5.758;2023-02-21T04:23:52;44.17;;;15.80;;
43857;SDS011;29507;51.284;5.758;2023-02-21T04:26:18;51.47;;;16.33;;
43857;SDS011;29507;51.284;5.758;2023-02-21T04:28:43;45.78;;;15.68;;
43857;SDS011;29507;51.284;5.758;2023-02-21T04:31:09;46.35;;;16.42;;
43857;SDS011;29507;51.284;5.758;2023-02-21T04:33:35;45.08;;;16.08;;
43857;SDS011;29507;51.284;5.758;2023-02-21T04:36:00;51.90;;;17.25;;
43857;SDS011;29507;51.284;5.758;2023-02-21T04:38:26;49.38;;;17.85;;
43857;SDS011;29507;51.284;5.758;2023-02-21T04:40:52;50.45;;;17.40;;
43857;SDS011;29507;51.284;5.758;2023-02-21T04:43:17;58.28;;;17.98;;
43857;SDS011;29507;51.284;5.758;2023-02-21T04:45:45;46.55;;;16.55;;
43857;SDS011;29507;51.284;5.758;2023-02-21T04:48:10;52.58;;;15.40;;
43857;SDS011;29507;51.284;5.758;2023-02-21T04:50:36;53.10;;;18.05;;
43857;SDS011;29507;51.284;5.758;2023-02-21T04:53:01;49.92;;;16.48;;
43857;SDS011;29507;51.284;5.758;2023-02-21T04:55:27;49.28;;;16.00;;
43857;SDS011;29507;51.284;5.758;2023-02-21T04:57:52;52.63;;;16.27;;
43857;SDS011;29507;51.284;5.758;2023-02-21T05:00:18;55.92;;;18.40;;
43857;SDS011;29507;51.284;5.758;2023-02-21T05:02:44;46.97;;;16.63;;
43857;SDS011;29507;51.284;5.758;2023-02-21T05:05:10;56.05;;;17.20;;
43857;SDS011;29507;51.284;5.758;2023-02-21T05:07:36;50.92;;;16.90;;
43857;SDS011;29507;51.284;5.758;2023-02-21T05:10:02;55.72;;;17.02;;
43857;SDS011;29507;51.284;5.758;2023-02-21T05:12:29;51.03;;;15.70;;
43857;SDS011;29507;51.284;5.758;2023-02-21T05:14:56;51.00;;;17.05;;
43857;SDS011;29507;51.284;5.758;2023-02-21T05:17:21;49.13;;;16.13;;
43857;SDS011;29507;51.284;5.758;2023-02-21T05:19:47;51.20;;;15.95;;
43857;SDS011;29507;51.284;5.758;2023-02-21T05:22:12;50.25;;;15.82;;
43857;SDS011;29507;51.284;5.758;2023-02-21T05:24:41;51.50;;;14.45;;
43857;SDS011;29507;51.284;5.758;2023-02-21T05:27:07;42.97;;;15.43;;
43857;SDS011;29507;51.284;5.758;2023-02-21T05:29:35;44.00;;;15.02;;
43857;SDS011;29507;51.284;5.758;2023-02-21T05:32:01;48.97;;;15.90;;
43857;SDS011;29507;51.284;5.758;2023-02-21T05:34:27;50.58;;;14.65;;
43857;SDS011;29507;51.284;5.758;2023-02-21T05:36:53;46.70;;;14.27;;
43857;SDS011;29507;51.284;5.758;2023-02-21T05:39:18;39.30;;;13.82;;
43857;SDS011;29507;51.284;5.758;2023-02-21T05:41:50;40.13;;;13.48;;
43857;SDS011;29507;51.284;5.758;2023-02-21T05:44:16;43.85;;;12.68;;
43857;SDS011;29507;51.284;5.758;2023-02-21T05:46:42;40.78;;;13.68;;
43857;SDS011;29507;51.284;5.758;2023-02-21T05:49:09;44.13;;;14.40;;
43857;SDS011;29507;51.284;5.758;2023-02-21T05:51:40;45.67;;;13.80;;
43857;SDS011;29507;51.284;5.758;2023-02-21T05:54:08;47.40;;;13.43;;
43857;SDS011;29507;51.284;5.758;2023-02-21T05:56:41;44.47;;;13.85;;
43857;SDS011;29507;51.284;5.758;2023-02-21T05:59:07;46.67;;;13.27;;
43857;SDS011;29507;51.284;5.758;2023-02-21T06:01:33;40.20;;;13.98;;
43857;SDS011;29507;51.284;5.758;2023-02-21T06:03:59;41.47;;;12.88;;
43857;SDS011;29507;51.284;5.758;2023-02-21T06:06:24;45.13;;;13.95;;
43857;SDS011;29507;51.284;5.758;2023-02-21T06:08:50;50.17;;;14.07;;
43857;SDS011;29507;51.284;5.758;2023-02-21T06:11:21;49.33;;;13.15;;
43857;SDS011;29507;51.284;5.758;2023-02-21T06:13:51;44.38;;;14.18;;
43857;SDS011;29507;51.284;5.758;2023-02-21T06:16:19;48.03;;;15.13;;
43857;SDS011;29507;51.284;5.758;2023-02-21T06:18:49;49.53;;;13.85;;
43857;SDS011;29507;51.284;5.758;2023-02-21T06:21:18;39.30;;;13.98;;
43857;SDS011;29507;51.284;5.758;2023-02-21T06:23:44;44.38;;;14.95;;
43857;SDS011;29507;51.284;5.758;2023-02-21T06:26:10;38.28;;;13.52;;
43857;SDS011;29507;51.284;5.758;2023-02-21T06:28:36;44.83;;;13.90;;
43857;SDS011;29507;51.284;5.758;2023-02-21T06:31:02;47.90;;;14.30;;
43857;SDS011;29507;51.284;5.758;2023-02-21T06:33:28;53.00;;;14.77;;
43857;SDS011;29507;51.284;5.758;2023-02-21T06:35:54;44.28;;;14.68;;
43857;SDS011;29507;51.284;5.758;2023-02-21T06:38:19;44.95;;;14.10;;
43857;SDS011;29507;51.284;5.758;2023-02-21T06:40:45;41.92;;;13.13;;
43857;SDS011;29507;51.284;5.758;2023-02-21T06:43:11;42.15;;;13.00;;
43857;SDS011;29507;51.284;5.758;2023-02-21T06:45:36;41.15;;;13.73;;
43857;SDS011;29507;51.284;5.758;2023-02-21T06:48:02;34.00;;;10.75;;
43857;SDS011;29507;51.284;5.758;2023-02-21T06:50:28;41.63;;;12.02;;
43857;SDS011;29507;51.284;5.758;2023-02-21T06:52:53;34.05;;;11.75;;
43857;SDS011;29507;51.284;5.758;2023-02-21T06:55:19;37.70;;;13.65;;
43857;SDS011;29507;51.284;5.758;2023-02-21T06:57:46;34.42;;;11.52;;
43857;SDS011;29507;51.284;5.758;2023-02-21T07:00:12;34.55;;;12.73;;
43857;SDS011;29507;51.284;5.758;2023-02-21T07:02:38;30.20;;;10.75;;
43857;SDS011;29507;51.284;5.758;2023-02-21T07:05:04;41.97;;;12.40;;
43857;SDS011;29507;51.284;5.758;2023-02-21T07:07:31;37.22;;;12.07;;
43857;SDS011;29507;51.284;5.758;2023-02-21T07:09:56;35.60;;;11.13;;
43857;SDS011;29507;51.284;5.758;2023-02-21T07:12:22;29.40;;;10.57;;
43857;SDS011;29507;51.284;5.758;2023-02-21T07:14:48;35.58;;;11.20;;
43857;SDS011;29507;51.284;5.758;2023-02-21T07:17:13;30.35;;;10.32;;
43857;SDS011;29507;51.284;5.758;2023-02-21T07:19:39;29.05;;;10.25;;
43857;SDS011;29507;51.284;5.758;2023-02-21T07:22:06;27.77;;;10.30;;
43857;SDS011;29507;51.284;5.758;2023-02-21T07:24:32;30.63;;;10.73;;
43857;SDS011;29507;51.284;5.758;2023-02-21T07:26:58;33.72;;;10.43;;
43857;SDS011;29507;51.284;5.758;2023-02-21T07:29:24;29.02;;;10.48;;
43857;SDS011;29507;51.284;5.758;2023-02-21T07:31:49;33.72;;;11.38;;
43857;SDS011;29507;51.284;5.758;2023-02-21T07:34:15;32.47;;;11.60;;
43857;SDS011;29507;51.284;5.758;2023-02-21T07:36:41;26.73;;;9.90;;
43857;SDS011;29507;51.284;5.758;2023-02-21T07:39:06;31.08;;;10.77;;
43857;SDS011;29507;51.284;5.758;2023-02-21T07:41:32;29.95;;;10.55;;
43857;SDS011;29507;51.284;5.758;2023-02-21T07:43:58;26.70;;;9.25;;
43857;SDS011;29507;51.284;5.758;2023-02-21T07:46:25;24.98;;;8.55;;
43857;SDS011;29507;51.284;5.758;2023-02-21T07:48:52;26.95;;;9.05;;
43857;SDS011;29507;51.284;5.758;2023-02-21T07:51:18;29.10;;;9.38;;
43857;SDS011;29507;51.284;5.758;2023-02-21T07:53:43;27.75;;;9.73;;
43857;SDS011;29507;51.284;5.758;2023-02-21T07:56:09;31.30;;;9.60;;
43857;SDS011;29507;51.284;5.758;2023-02-21T07:58:35;31.75;;;9.98;;
43857;SDS011;29507;51.284;5.758;2023-02-21T08:01:04;27.25;;;9.63;;
43857;SDS011;29507;51.284;5.758;2023-02-21T08:03:30;30.92;;;9.75;;
43857;SDS011;29507;51.284;5.758;2023-02-21T08:05:57;34.00;;;9.27;;
43857;SDS011;29507;51.284;5.758;2023-02-21T08:08:23;25.45;;;8.73;;
43857;SDS011;29507;51.284;5.758;2023-02-21T08:10:49;27.58;;;10.25;;
43857;SDS011;29507;51.284;5.758;2023-02-21T08:13:15;29.95;;;9.63;;
43857;SDS011;29507;51.284;5.758;2023-02-21T08:15:40;27.83;;;9.15;;
43857;SDS011;29507;51.284;5.758;2023-02-21T08:18:10;34.88;;;10.38;;
43857;SDS011;29507;51.284;5.758;2023-02-21T08:20:42;26.95;;;9.20;;
43857;SDS011;29507;51.284;5.758;2023-02-21T08:23:08;25.00;;;9.88;;
43857;SDS011;29507;51.284;5.758;2023-02-21T08:25:33;33.22;;;10.13;;
43857;SDS011;29507;51.284;5.758;2023-02-21T08:27:59;29.80;;;10.05;;
43857;SDS011;29507;51.284;5.758;2023-02-21T08:30:24;30.02;;;9.70;;
43857;SDS011;29507;51.284;5.758;2023-02-21T08:32:50;27.17;;;9.25;;
43857;SDS011;29507;51.284;5.758;2023-02-21T08:35:16;29.55;;;9.75;;
43857;SDS011;29507;51.284;5.758;2023-02-21T08:37:44;30.67;;;10.23;;
43857;SDS011;29507;51.284;5.758;2023-02-21T08:40:14;26.67;;;9.77;;
43857;SDS011;29507;51.284;5.758;2023-02-21T08:42:42;25.80;;;8.57;;
43857;SDS011;29507;51.284;5.758;2023-02-21T08:45:14;28.48;;;8.73;;
43857;SDS011;29507;51.284;5.758;2023-02-21T08:50:07;26.02;;;9.18;;
43857;SDS011;29507;51.284;5.758;2023-02-21T08:52:32;23.63;;;8.48;;
43857;SDS011;29507;51.284;5.758;2023-02-21T08:54:58;22.40;;;7.35;;
43857;SDS011;29507;51.284;5.758;2023-02-21T08:57:23;24.17;;;8.77;;
43857;SDS011;29507;51.284;5.758;2023-02-21T08:59:49;24.77;;;8.90;;
43857;SDS011;29507;51.284;5.758;2023-02-21T09:02:22;22.75;;;7.13;;
43857;SDS011;29507;51.284;5.758;2023-02-21T09:04:49;22.02;;;8.85;;
43857;SDS011;29507;51.284;5.758;2023-02-21T09:07:16;22.15;;;8.25;;
43857;SDS011;29507;51.284;5.758;2023-02-21T09:09:43;19.20;;;7.60;;
43857;SDS011;29507;51.284;5.758;2023-02-21T09:12:08;19.10;;;7.32;;
43857;SDS011;29507;51.284;5.758;2023-02-21T09:14:34;21.83;;;7.03;;
43857;SDS011;29507;51.284;5.758;2023-02-21T09:17:01;19.50;;;7.60;;
43857;SDS011;29507;51.284;5.758;2023-02-21T09:19:27;19.60;;;7.72;;
43857;SDS011;29507;51.284;5.758;2023-02-21T09:21:53;18.02;;;7.28;;
43857;SDS011;29507;51.284;5.758;2023-02-21T09:24:22;18.52;;;6.68;;
43857;SDS011;29507;51.284;5.758;2023-02-21T09:26:52;20.60;;;8.07;;
43857;SDS011;29507;51.284;5.758;2023-02-21T09:29:20;18.23;;;7.25;;
43857;SDS011;29507;51.284;5.758;2023-02-21T09:31:46;20.20;;;6.97;;
43857;SDS011;29507;51.284;5.758;2023-02-21T09:34:13;19.95;;;6.43;;
43857;SDS011;29507;51.284;5.758;2023-02-21T09:36:38;20.90;;;7.78;;
43857;SDS011;29507;51.284;5.758;2023-02-21T09:39:04;18.60;;;7.03;;
43857;SDS011;29507;51.284;5.758;2023-02-21T09:41:31;18.17;;;6.72;;
43857;SDS011;29507;51.284;5.758;2023-02-21T09:43:58;19.05;;;7.90;;
43857;SDS011;29507;51.284;5.758;2023-02-21T09:46:41;15.45;;;6.25;;
43857;SDS011;29507;51.284;5.758;2023-02-21T09:49:11;16.08;;;6.38;;
43857;SDS011;29507;51.284;5.758;2023-02-21T09:51:42;16.55;;;6.75;;
43857;SDS011;29507;51.284;5.758;2023-02-21T09:57:15;16.08;;;6.32;;
43857;SDS011;29507;51.284;5.758;2023-02-21T09:59:42;16.95;;;6.30;;
43857;SDS011;29507;51.284;5.758;2023-02-21T10:02:15;13.07;;;5.35;;
43857;SDS011;29507;51.284;5.758;2023-02-21T10:10:42;13.15;;;5.28;;
43857;SDS011;29507;51.284;5.758;2023-02-21T10:16:14;16.10;;;5.35;;
43857;SDS011;29507;51.284;5.758;2023-02-21T10:21:38;12.70;;;5.32;;
43857;SDS011;29507;51.284;5.758;2023-02-21T10:24:12;15.52;;;5.78;;
43857;SDS011;29507;51.284;5.758;2023-02-21T10:26:45;11.80;;;5.00;;
43857;SDS011;29507;51.284;5.758;2023-02-21T10:29:20;12.43;;;4.80;;
43857;SDS011;29507;51.284;5.758;2023-02-21T10:31:51;12.20;;;4.60;;
43857;SDS011;29507;51.284;5.758;2023-02-21T10:34:25;12.27;;;5.15;;
43857;SDS011;29507;51.284;5.758;2023-02-21T10:36:55;11.77;;;5.53;;
43857;SDS011;29507;51.284;5.758;2023-02-21T10:39:36;10.40;;;4.40;;
43857;SDS011;29507;51.284;5.758;2023-02-21T10:42:11;14.93;;;5.88;;
43857;SDS011;29507;51.284;5.758;2023-02-21T10:44:48;11.00;;;4.82;;
43857;SDS011;29507;51.284;5.758;2023-02-21T10:47:18;12.02;;;5.03;;
43857;SDS011;29507;51.284;5.758;2023-02-21T10:49:55;12.57;;;4.60;;
43857;SDS011;29507;51.284;5.758;2023-02-21T10:52:28;10.52;;;4.57;;
43857;SDS011;29507;51.284;5.758;2023-02-21T10:55:06;10.32;;;4.13;;
43857;SDS011;29507;51.284;5.758;2023-02-21T10:57:43;11.43;;;4.30;;
43857;SDS011;29507;51.284;5.758;2023-02-21T11:00:30;8.68;;;3.92;;
43857;SDS011;29507;51.284;5.758;2023-02-21T11:03:13;9.48;;;3.92;;
43857;SDS011;29507;51.284;5.758;2023-02-21T11:05:51;10.63;;;4.25;;
43857;SDS011;29507;51.284;5.758;2023-02-21T11:08:35;10.60;;;4.50;;
43857;SDS011;29507;51.284;5.758;2023-02-21T11:11:06;10.32;;;4.43;;
43857;SDS011;29507;51.284;5.758;2023-02-21T11:13:33;10.52;;;4.68;;
43857;SDS011;29507;51.284;5.758;2023-02-21T11:18:42;10.38;;;4.72;;
43857;SDS011;29507;51.284;5.758;2023-02-21T11:21:13;9.35;;;4.55;;
43857;SDS011;29507;51.284;5.758;2023-02-21T11:23:44;12.95;;;5.43;;
43857;SDS011;29507;51.284;5.758;2023-02-21T11:26:17;12.48;;;5.03;;
43857;SDS011;29507;51.284;5.758;2023-02-21T11:28:44;11.00;;;4.75;;
43857;SDS011;29507;51.284;5.758;2023-02-21T11:33:47;11.35;;;4.55;;
43857;SDS011;29507;51.284;5.758;2023-02-21T11:38:58;11.18;;;4.10;;
43857;SDS011;29507;51.284;5.758;2023-02-21T11:43:53;11.65;;;4.68;;
43857;SDS011;29507;51.284;5.758;2023-02-21T11:51:40;9.85;;;4.50;;
43857;SDS011;29507;51.284;5.758;2023-02-21T11:54:27;9.48;;;4.70;;
43857;SDS011;29507;51.284;5.758;2023-02-21T11:57:05;9.10;;;4.40;;
43857;SDS011;29507;51.284;5.758;2023-02-21T12:10:28;8.95;;;4.20;;
43857;SDS011;29507;51.284;5.758;2023-02-21T12:13:17;7.50;;;3.63;;
43857;SDS011;29507;51.284;5.758;2023-02-21T12:16:07;7.68;;;3.60;;
43857;SDS011;29507;51.284;5.758;2023-02-21T12:24:00;8.32;;;4.20;;
43857;SDS011;29507;51.284;5.758;2023-02-21T12:29:34;9.73;;;4.47;;
43857;SDS011;29507;51.284;5.758;2023-02-21T12:32:15;11.52;;;4.93;;
43857;SDS011;29507;51.284;5.758;2023-02-21T12:40:28;10.75;;;4.22;;
43857;SDS011;29507;51.284;5.758;2023-02-21T12:43:31;8.95;;;3.85;;
43857;SDS011;29507;51.284;5.758;2023-02-21T12:46:11;9.57;;;4.20;;
43857;SDS011;29507;51.284;5.758;2023-02-21T12:51:44;10.13;;;4.68;;
43857;SDS011;29507;51.284;5.758;2023-02-21T12:54:20;9.95;;;4.68;;
43857;SDS011;29507;51.284;5.758;2023-02-21T12:57:15;10.65;;;4.72;;
43857;SDS011;29507;51.284;5.758;2023-02-21T13:02:35;9.63;;;4.72;;
43857;SDS011;29507;51.284;5.758;2023-02-21T13:05:10;7.32;;;3.72;;
43857;SDS011;29507;51.284;5.758;2023-02-21T13:07:45;8.02;;;3.92;;
43857;SDS011;29507;51.284;5.758;2023-02-21T13:10:17;10.60;;;4.72;;
43857;SDS011;29507;51.284;5.758;2023-02-21T13:15:23;9.95;;;3.88;;
43857;SDS011;29507;51.284;5.758;2023-02-21T13:20:41;11.77;;;4.50;;
43857;SDS011;29507;51.284;5.758;2023-02-21T13:29:03;9.90;;;4.45;;
43857;SDS011;29507;51.284;5.758;2023-02-21T13:31:41;8.48;;;4.25;;
43857;SDS011;29507;51.284;5.758;2023-02-21T13:34:08;7.93;;;3.63;;
43857;SDS011;29507;51.284;5.758;2023-02-21T13:39:26;8.93;;;4.53;;
43857;SDS011;29507;51.284;5.758;2023-02-21T13:42:05;9.23;;;4.10;;
43857;SDS011;29507;51.284;5.758;2023-02-21T13:44:38;9.43;;;4.30;;
43857;SDS011;29507;51.284;5.758;2023-02-21T13:47:21;10.68;;;4.72;;
43857;SDS011;29507;51.284;5.758;2023-02-21T13:57:39;9.18;;;4.78;;
43857;SDS011;29507;51.284;5.758;2023-02-21T14:02:57;15.00;;;5.82;;
43857;SDS011;29507;51.284;5.758;2023-02-21T14:13:38;10.63;;;5.13;;
43857;SDS011;29507;51.284;5.758;2023-02-21T14:18:41;16.73;;;6.18;;
43857;SDS011;29507;51.284;5.758;2023-02-21T14:21:47;11.15;;;5.32;;
43857;SDS011;29507;51.284;5.758;2023-02-21T14:26:53;11.35;;;5.78;;
43857;SDS011;29507;51.284;5.758;2023-02-21T14:45:34;17.55;;;7.28;;
43857;SDS011;29507;51.284;5.758;2023-02-21T14:50:45;14.43;;;6.38;;
43857;SDS011;29507;51.284;5.758;2023-02-21T14:56:32;13.95;;;5.80;;
43857;SDS011;29507;51.284;5.758;2023-02-21T14:59:16;17.73;;;7.15;;
43857;SDS011;29507;51.284;5.758;2023-02-21T15:04:54;19.15;;;7.03;;
43857;SDS011;29507;51.284;5.758;2023-02-21T15:07:29;17.58;;;6.78;;
43857;SDS011;29507;51.284;5.758;2023-02-21T15:10:13;18.83;;;8.20;;
43857;SDS011;29507;51.284;5.758;2023-02-21T15:12:49;14.43;;;6.72;;
43857;SDS011;29507;51.284;5.758;2023-02-21T15:15:19;19.08;;;7.47;;
43857;SDS011;29507;51.284;5.758;2023-02-21T15:17:58;21.88;;;7.80;;
43857;SDS011;29507;51.284;5.758;2023-02-21T15:20:31;20.85;;;7.80;;
43857;SDS011;29507;51.284;5.758;2023-02-21T15:23:05;16.33;;;7.15;;
43857;SDS011;29507;51.284;5.758;2023-02-21T15:25:52;16.20;;;6.90;;
43857;SDS011;29507;51.284;5.758;2023-02-21T15:28:21;20.77;;;7.72;;
43857;SDS011;29507;51.284;5.758;2023-02-21T15:30:58;17.98;;;7.85;;
43857;SDS011;29507;51.284;5.758;2023-02-21T15:33:29;20.08;;;8.02;;
43857;SDS011;29507;51.284;5.758;2023-02-21T15:36:15;15.35;;;6.65;;
43857;SDS011;29507;51.284;5.758;2023-02-21T15:38:46;19.90;;;8.32;;
43857;SDS011;29507;51.284;5.758;2023-02-21T15:41:43;20.52;;;8.35;;
43857;SDS011;29507;51.284;5.758;2023-02-21T15:44:22;19.35;;;7.82;;
43857;SDS011;29507;51.284;5.758;2023-02-21T15:47:17;19.27;;;8.30;;
43857;SDS011;29507;51.284;5.758;2023-02-21T15:49:59;21.30;;;8.93;;
43857;SDS011;29507;51.284;5.758;2023-02-21T15:52:38;21.77;;;7.93;;
43857;SDS011;29507;51.284;5.758;2023-02-21T15:55:13;23.20;;;8.38;;
43857;SDS011;29507;51.284;5.758;2023-02-21T16:00:32;18.95;;;7.68;;
43857;SDS011;29507;51.284;5.758;2023-02-21T16:06:34;21.85;;;8.10;;
43857;SDS011;29507;51.284;5.758;2023-02-21T16:14:20;20.63;;;7.88;;
43857;SDS011;29507;51.284;5.758;2023-02-21T16:16:49;21.25;;;8.23;;
43857;SDS011;29507;51.284;5.758;2023-02-21T16:19:21;21.30;;;8.70;;
43857;SDS011;29507;51.284;5.758;2023-02-21T16:21:48;19.70;;;7.13;;
43857;SDS011;29507;51.284;5.758;2023-02-21T16:24:31;24.92;;;9.35;;
43857;SDS011;29507;51.284;5.758;2023-02-21T16:27:01;22.65;;;8.90;;
43857;SDS011;29507;51.284;5.758;2023-02-21T16:29:28;22.42;;;8.93;;
43857;SDS011;29507;51.284;5.758;2023-02-21T16:31:54;25.92;;;9.13;;
43857;SDS011;29507;51.284;5.758;2023-02-21T16:34:19;23.35;;;8.63;;
43857;SDS011;29507;51.284;5.758;2023-02-21T16:36:45;21.60;;;7.90;;
43857;SDS011;29507;51.284;5.758;2023-02-21T16:39:11;22.45;;;8.18;;
43857;SDS011;29507;51.284;5.758;2023-02-21T16:41:36;24.90;;;9.70;;
43857;SDS011;29507;51.284;5.758;2023-02-21T16:44:02;22.20;;;8.70;;
43857;SDS011;29507;51.284;5.758;2023-02-21T16:46:27;28.85;;;10.10;;
43857;SDS011;29507;51.284;5.758;2023-02-21T16:48:53;25.88;;;10.15;;
43857;SDS011;29507;51.284;5.758;2023-02-21T16:51:20;23.00;;;9.50;;
43857;SDS011;29507;51.284;5.758;2023-02-21T16:53:46;24.60;;;9.32;;
43857;SDS011;29507;51.284;5.758;2023-02-21T16:56:12;27.92;;;10.02;;
43857;SDS011;29507;51.284;5.758;2023-02-21T16:58:39;21.92;;;8.60;;
43857;SDS011;29507;51.284;5.758;2023-02-21T17:03:37;22.42;;;7.78;;
43857;SDS011;29507;51.284;5.758;2023-02-21T17:06:04;18.67;;;7.47;;
43857;SDS011;29507;51.284;5.758;2023-02-21T17:08:30;24.55;;;8.65;;
43857;SDS011;29507;51.284;5.758;2023-02-21T17:10:56;22.02;;;9.20;;
43857;SDS011;29507;51.284;5.758;2023-02-21T17:13:22;23.25;;;8.55;;
43857;SDS011;29507;51.284;5.758;2023-02-21T17:15:49;24.40;;;8.15;;
43857;SDS011;29507;51.284;5.758;2023-02-21T17:18:14;16.83;;;7.63;;
43857;SDS011;29507;51.284;5.758;2023-02-21T17:20:40;15.88;;;7.20;;
43857;SDS011;29507;51.284;5.758;2023-02-21T17:23:05;22.65;;;8.32;;
43857;SDS011;29507;51.284;5.758;2023-02-21T17:25:31;19.20;;;7.95;;
43857;SDS011;29507;51.284;5.758;2023-02-21T17:27:59;17.85;;;7.55;;
43857;SDS011;29507;51.284;5.758;2023-02-21T17:30:24;18.88;;;8.15;;
43857;SDS011;29507;51.284;5.758;2023-02-21T17:32:51;21.40;;;7.78;;
43857;SDS011;29507;51.284;5.758;2023-02-21T17:35:18;21.15;;;7.22;;
43857;SDS011;29507;51.284;5.758;2023-02-21T17:37:45;18.70;;;7.55;;
43857;SDS011;29507;51.284;5.758;2023-02-21T17:40:11;20.65;;;7.82;;
43857;SDS011;29507;51.284;5.758;2023-02-21T17:42:37;18.00;;;7.82;;
43857;SDS011;29507;51.284;5.758;2023-02-21T17:45:03;21.20;;;7.43;;
43857;SDS011;29507;51.284;5.758;2023-02-21T17:47:29;18.13;;;8.50;;
43857;SDS011;29507;51.284;5.758;2023-02-21T17:49:55;24.52;;;10.00;;
43857;SDS011;29507;51.284;5.758;2023-02-21T17:52:23;21.38;;;8.27;;